24J

Suwannee County Airport

Live Oak, Florida, USA
METAR K24J 210335Z AUTO 05008KT 030V090 10SM OVC021 17/12 A3025 RMK A01
Observed Flight Rules
Apr-21 @ 03:35 UTC (17 minutes ago) Marginal Visual Flight Rules
Wind Visibility Clouds
50° at 8 knots 10 miles
  • Overcast at 2,100' AGL
Temperatures Readings
Current 17°C / 63°F
Dewpoint 12°C / 54°F
Humidity 73%
Altimeter 30.25" Hg
Pressure 1024 hPa
Elevation 32
METAR K24J 210335Z AUTO 05008KT 030V090 10SM OVC021 17/12 A3025 RMK A01
Observed Flight Rules
Apr-21 @ 03:35 UTC
(17 minutes ago)
MVFR
Wind Visibility
50° at 8 knots 10 miles
Clouds
  • Overcast at 2,100' AGL
Temperature Dewpoint
17°C / 63°F 12°C / 54°F
Humidity Altimeter Pressure
73% 30.25" Hg 1024 hPa